Time;durP1;ratioP1;P1;durP2;ratioP2;P2;SDS_P1;SDS_P2;PMS_P1;PMS_P2;Temp;Humidity;BMP_temperature;BMP_pressure;BME280_temperature;BME280_humidity;BME280_pressure;Samples;Min_cycle;Max_cycle;Signal;HPM_P1;HPM_P2
2023/05/31 00:02:26;;;;;;;;;;;21.00;52.80;;;;;;10332486;28;1971;-74
2023/05/31 00:07:21;;;;;;;;;;;21.00;52.80;;;;;;10332296;28;910;-74
2023/05/31 00:12:17;;;;;;;;;;;21.00;52.80;;;;;;10332102;28;880;-74
2023/05/31 00:17:12;;;;;;;;;;;21.00;52.80;;;;;;10331991;28;877;-74
2023/05/31 00:22:07;;;;;;;;;;;20.90;52.70;;;;;;10331734;28;1906;-74
2023/05/31 00:27:03;;;;;;;;;;;21.00;52.80;;;;;;10332200;28;839;-74
2023/05/31 00:31:58;;;;;;;;;;;20.90;52.80;;;;;;10332040;28;931;-74
2023/05/31 00:36:53;;;;;;;;;;;21.00;52.90;;;;;;10331600;28;1290;-74
2023/05/31 00:41:49;;;;;;;;;;;20.90;52.80;;;;;;10331448;28;1996;-74
2023/05/31 00:46:44;;;;;;;;;;;20.90;52.70;;;;;;10330290;28;897;-73
2023/05/31 00:51:40;;;;;;;;;;;21.00;52.90;;;;;;10331306;28;839;-74
2023/05/31 00:56:35;;;;;;;;;;;20.90;52.80;;;;;;10330606;28;779;-74
2023/05/31 01:01:33;;;;;;;;;;;20.90;52.80;;;;;;10330980;28;1968;-74
2023/05/31 01:06:32;;;;;;;;;;;20.90;52.80;;;;;;10328880;28;773;-74
2023/05/31 01:11:27;;;;;;;;;;;21.00;52.90;;;;;;10330129;28;860;-74
2023/05/31 01:16:23;;;;;;;;;;;20.90;52.80;;;;;;10329838;28;772;-74
2023/05/31 01:21:19;;;;;;;;;;;21.00;52.80;;;;;;10329528;28;1902;-74
2023/05/31 01:26:18;;;;;;;;;;;20.90;52.80;;;;;;10329366;28;845;-74
2023/05/31 01:31:13;;;;;;;;;;;20.90;52.70;;;;;;10328674;28;984;-74
2023/05/31 01:36:09;;;;;;;;;;;20.90;52.70;;;;;;10329197;28;1363;-74
2023/05/31 01:41:06;;;;;;;;;;;20.90;52.70;;;;;;10328726;28;1973;-74
2023/05/31 01:46:01;;;;;;;;;;;20.90;52.70;;;;;;10328521;28;960;-74
2023/05/31 01:50:56;;;;;;;;;;;20.90;52.80;;;;;;10328444;28;898;-74
2023/05/31 01:55:52;;;;;;;;;;;20.90;52.70;;;;;;10328218;28;817;-74
2023/05/31 02:00:47;;;;;;;;;;;20.90;52.70;;;;;;10328521;28;1906;-74
2023/05/31 02:05:44;;;;;;;;;;;20.90;52.70;;;;;;10328535;28;1088;-74
2023/05/31 02:10:39;;;;;;;;;;;20.90;52.80;;;;;;10328249;28;869;-74
2023/05/31 02:15:36;;;;;;;;;;;20.90;52.80;;;;;;10327913;28;925;-74
2023/05/31 02:20:32;;;;;;;;;;;20.90;52.90;;;;;;10327784;28;1909;-74
2023/05/31 02:25:27;;;;;;;;;;;20.90;52.80;;;;;;10327030;28;776;-74
2023/05/31 02:30:22;;;;;;;;;;;20.80;52.80;;;;;;10326852;28;861;-74
2023/05/31 02:35:18;;;;;;;;;;;20.90;52.90;;;;;;10326660;28;1526;-74
2023/05/31 02:40:13;;;;;;;;;;;20.80;52.80;;;;;;10327125;28;880;-74
2023/05/31 02:45:09;;;;;;;;;;;20.80;52.90;;;;;;10326843;28;1922;-74
2023/05/31 02:50:04;;;;;;;;;;;20.80;52.80;;;;;;10326881;28;880;-74
2023/05/31 02:54:59;;;;;;;;;;;20.80;52.80;;;;;;10326206;28;939;-74
2023/05/31 02:59:55;;;;;;;;;;;20.80;52.80;;;;;;10326574;28;755;-74
2023/05/31 03:04:51;;;;;;;;;;;20.80;52.80;;;;;;10325731;28;1969;-73
2023/05/31 03:09:46;;;;;;;;;;;20.80;52.80;;;;;;10326348;28;813;-74
2023/05/31 03:14:42;;;;;;;;;;;20.80;52.80;;;;;;10307617;28;901;-73
2023/05/31 03:19:37;;;;;;;;;;;20.80;52.80;;;;;;10326112;28;913;-74
2023/05/31 03:24:32;;;;;;;;;;;20.80;52.80;;;;;;10325334;28;1910;-74
2023/05/31 03:29:28;;;;;;;;;;;20.80;52.90;;;;;;10332397;28;894;-74
2023/05/31 03:34:24;;;;;;;;;;;20.80;52.80;;;;;;10338696;28;1224;-74
2023/05/31 03:39:19;;;;;;;;;;;20.80;52.90;;;;;;10338650;28;946;-74
2023/05/31 03:44:15;;;;;;;;;;;20.70;52.90;;;;;;10339350;28;1914;-74
2023/05/31 03:49:10;;;;;;;;;;;20.80;52.80;;;;;;10339077;28;872;-74
2023/05/31 03:54:06;;;;;;;;;;;20.80;52.80;;;;;;10338404;28;858;-73
2023/05/31 03:59:01;;;;;;;;;;;20.80;52.80;;;;;;10338955;28;872;-74
2023/05/31 04:03:56;;;;;;;;;;;20.70;52.70;;;;;;10338088;28;1902;-74
2023/05/31 04:08:52;;;;;;;;;;;20.70;52.80;;;;;;10338179;28;835;-74
2023/05/31 04:13:47;;;;;;;;;;;20.70;52.80;;;;;;10338674;28;885;-74
2023/05/31 04:18:43;;;;;;;;;;;20.70;52.70;;;;;;10337902;28;866;-74
2023/05/31 04:23:38;;;;;;;;;;;20.70;52.80;;;;;;10338027;28;1909;-74
2023/05/31 04:28:34;;;;;;;;;;;20.70;52.80;;;;;;10337819;28;742;-74
2023/05/31 04:33:30;;;;;;;;;;;20.70;52.80;;;;;;10338242;28;1024;-72
2023/05/31 04:38:27;;;;;;;;;;;20.70;52.80;;;;;;10337455;28;1253;-75
2023/05/31 04:43:22;;;;;;;;;;;20.70;52.70;;;;;;10329210;28;1972;-74
2023/05/31 04:48:19;;;;;;;;;;;20.70;52.70;;;;;;10331578;28;907;-74
2023/05/31 04:53:14;;;;;;;;;;;20.70;52.70;;;;;;10330167;28;1051;-74
2023/05/31 04:58:10;;;;;;;;;;;20.80;52.80;;;;;;10329460;28;750;-74
2023/05/31 05:03:05;;;;;;;;;;;20.80;52.80;;;;;;10330524;28;1906;-73
2023/05/31 05:08:01;;;;;;;;;;;20.70;52.70;;;;;;10330121;28;886;-73
2023/05/31 05:12:56;;;;;;;;;;;20.80;52.80;;;;;;10330174;28;952;-73
2023/05/31 05:17:51;;;;;;;;;;;20.70;52.70;;;;;;10330426;28;885;-74
2023/05/31 05:22:47;;;;;;;;;;;20.70;52.80;;;;;;10330438;28;1910;-76
2023/05/31 05:27:42;;;;;;;;;;;20.70;52.80;;;;;;10330211;28;915;-73
2023/05/31 05:32:37;;;;;;;;;;;20.70;52.80;;;;;;10329829;28;849;-74
2023/05/31 05:37:33;;;;;;;;;;;20.70;52.90;;;;;;10328597;28;1286;-74
2023/05/31 05:42:30;;;;;;;;;;;20.70;52.90;;;;;;10328761;28;1965;-73
2023/05/31 05:47:26;;;;;;;;;;;20.70;53.00;;;;;;10328943;28;801;-74
2023/05/31 05:52:21;;;;;;;;;;;20.70;53.00;;;;;;10327735;28;972;-75
2023/05/31 05:57:16;;;;;;;;;;;20.60;52.90;;;;;;10328260;28;845;-74
2023/05/31 06:02:12;;;;;;;;;;;20.60;53.00;;;;;;10327936;28;1965;-73
2023/05/31 06:07:07;;;;;;;;;;;20.60;53.00;;;;;;10328378;28;838;-74
2023/05/31 06:12:03;;;;;;;;;;;20.60;53.00;;;;;;10328584;28;857;-73
2023/05/31 06:16:58;;;;;;;;;;;20.60;53.00;;;;;;10328001;28;865;-74
2023/05/31 06:21:56;;;;;;;;;;;20.60;53.10;;;;;;10326605;28;2028;-74
2023/05/31 06:26:51;;;;;;;;;;;20.60;53.10;;;;;;10326973;28;925;-74
2023/05/31 06:31:47;;;;;;;;;;;20.60;53.10;;;;;;10326533;28;940;-73
2023/05/31 06:36:42;;;;;;;;;;;20.60;53.00;;;;;;10327060;28;1145;-68
2023/05/31 06:41:37;;;;;;;;;;;20.60;53.00;;;;;;10327181;28;1913;-69
2023/05/31 06:46:33;;;;;;;;;;;20.60;53.00;;;;;;10326297;28;878;-69
2023/05/31 06:51:28;;;;;;;;;;;20.60;53.20;;;;;;10325634;28;904;-69
2023/05/31 06:56:23;;;;;;;;;;;20.60;53.20;;;;;;10326803;28;869;-69
2023/05/31 07:01:19;;;;;;;;;;;20.60;53.20;;;;;;10325852;28;1902;-69
2023/05/31 07:06:14;;;;;;;;;;;20.60;53.30;;;;;;10325792;28;957;-69
2023/05/31 07:11:12;;;;;;;;;;;20.60;53.30;;;;;;10325675;28;981;-69
2023/05/31 07:16:07;;;;;;;;;;;20.60;53.40;;;;;;10325610;28;907;-69
2023/05/31 07:21:03;;;;;;;;;;;20.60;53.40;;;;;;10325459;28;1959;-69
2023/05/31 07:26:00;;;;;;;;;;;20.60;53.40;;;;;;10325446;28;798;-69
2023/05/31 07:30:55;;;;;;;;;;;20.60;53.40;;;;;;10325886;28;830;-69
2023/05/31 07:35:51;;;;;;;;;;;20.60;53.50;;;;;;10325377;28;1377;-69
2023/05/31 07:40:46;;;;;;;;;;;20.60;53.50;;;;;;10325649;28;1918;-70
2023/05/31 07:45:41;;;;;;;;;;;20.60;53.60;;;;;;10324967;28;764;-69
2023/05/31 07:50:37;;;;;;;;;;;20.60;53.60;;;;;;10325512;28;814;-70
2023/05/31 07:55:32;;;;;;;;;;;20.60;53.60;;;;;;10324765;28;853;-69
2023/05/31 08:00:28;;;;;;;;;;;20.60;53.60;;;;;;10324108;28;1209;-69
2023/05/31 08:05:23;;;;;;;;;;;20.60;53.60;;;;;;10325450;28;1905;-69
2023/05/31 08:10:18;;;;;;;;;;;20.60;53.70;;;;;;10323948;28;837;-69
2023/05/31 08:15:14;;;;;;;;;;;20.60;53.60;;;;;;10327543;28;846;-71
2023/05/31 08:20:10;;;;;;;;;;;20.60;53.70;;;;;;10332555;28;811;-69
2023/05/31 08:25:06;;;;;;;;;;;20.60;53.70;;;;;;10331389;28;1898;-69
2023/05/31 08:30:02;;;;;;;;;;;20.60;53.80;;;;;;10331813;28;877;-69
2023/05/31 08:34:57;;;;;;;;;;;20.50;53.70;;;;;;10331421;28;1125;-69
2023/05/31 08:39:53;;;;;;;;;;;20.50;53.70;;;;;;10332018;28;811;-69
2023/05/31 08:44:48;;;;;;;;;;;20.60;53.90;;;;;;10331635;28;1918;-69
2023/05/31 08:49:43;;;;;;;;;;;20.50;53.80;;;;;;10330911;28;810;-69
2023/05/31 08:54:39;;;;;;;;;;;20.50;53.80;;;;;;10330199;28;991;-69
2023/05/31 08:59:36;;;;;;;;;;;20.50;53.80;;;;;;10330512;28;834;-69
2023/05/31 09:04:32;;;;;;;;;;;20.50;53.90;;;;;;10330971;28;1906;-69
2023/05/31 09:09:28;;;;;;;;;;;20.50;53.90;;;;;;10331070;28;859;-69
2023/05/31 09:14:24;;;;;;;;;;;20.50;53.90;;;;;;10329948;28;871;-69
2023/05/31 09:19:19;;;;;;;;;;;20.50;53.90;;;;;;10329965;28;846;-68
2023/05/31 09:24:15;;;;;;;;;;;20.50;53.90;;;;;;10330280;28;1957;-69
2023/05/31 09:29:11;;;;;;;;;;;20.80;54.20;;;;;;10328847;28;798;-69
2023/05/31 09:34:06;;;;;;;;;;;20.50;53.90;;;;;;10329409;28;1250;-70
2023/05/31 09:39:04;;;;;;;;;;;20.50;54.00;;;;;;10328802;28;996;-69
2023/05/31 09:43:59;;;;;;;;;;;20.40;54.10;;;;;;10328782;28;1910;-70
2023/05/31 09:48:54;;;;;;;;;;;20.40;54.00;;;;;;10328885;28;831;-68
2023/05/31 09:53:51;;;;;;;;;;;20.40;54.00;;;;;;10328361;28;894;-68
2023/05/31 09:58:47;;;;;;;;;;;20.40;54.10;;;;;;10327566;28;1172;-68
2023/05/31 10:03:42;;;;;;;;;;;20.40;54.10;;;;;;10327953;28;2020;-68
2023/05/31 10:08:38;;;;;;;;;;;20.40;54.20;;;;;;10327843;28;848;-68
2023/05/31 10:13:33;;;;;;;;;;;20.40;54.10;;;;;;10327597;28;778;-68
2023/05/31 10:18:28;;;;;;;;;;;20.40;54.10;;;;;;10327321;28;940;-67
2023/05/31 10:23:24;;;;;;;;;;;20.40;54.20;;;;;;10327201;28;1910;-68
2023/05/31 10:28:19;;;;;;;;;;;20.40;54.10;;;;;;10325590;28;1002;-69
2023/05/31 10:33:15;;;;;;;;;;;20.40;54.20;;;;;;10325673;28;957;-74
2023/05/31 10:38:10;;;;;;;;;;;20.40;54.10;;;;;;10326248;28;1414;-69
2023/05/31 10:43:05;;;;;;;;;;;20.40;54.00;;;;;;10326524;28;1918;-70
2023/05/31 10:48:01;;;;;;;;;;;20.40;53.90;;;;;;10326398;28;999;-70
2023/05/31 10:52:56;;;;;;;;;;;20.50;54.10;;;;;;10326357;28;792;-70
2023/05/31 10:57:52;;;;;;;;;;;20.50;54.10;;;;;;10325526;28;912;-70
2023/05/31 11:02:47;;;;;;;;;;;20.50;54.00;;;;;;10344093;28;1965;-69
2023/05/31 11:07:43;;;;;;;;;;;20.50;54.00;;;;;;10366973;28;787;-70
2023/05/31 11:12:40;;;;;;;;;;;20.40;54.10;;;;;;10335659;28;753;-70
2023/05/31 11:17:36;;;;;;;;;;;20.50;54.10;;;;;;10325553;28;1004;-70
2023/05/31 11:22:31;;;;;;;;;;;20.40;54.10;;;;;;10325514;28;1906;-70
2023/05/31 11:27:26;;;;;;;;;;;20.40;54.10;;;;;;10324856;28;885;-70
2023/05/31 11:32:24;;;;;;;;;;;20.40;54.10;;;;;;10325368;28;1019;-70
2023/05/31 11:37:21;;;;;;;;;;;20.40;54.10;;;;;;10326117;28;1172;-70
2023/05/31 11:42:16;;;;;;;;;;;20.40;54.10;;;;;;10325400;28;1971;-70
2023/05/31 11:47:13;;;;;;;;;;;20.40;54.10;;;;;;10325899;28;861;-70
2023/05/31 11:52:09;;;;;;;;;;;20.40;54.10;;;;;;10331850;28;826;-70
2023/05/31 11:57:04;;;;;;;;;;;20.40;54.00;;;;;;10333020;28;814;-70
2023/05/31 12:02:00;;;;;;;;;;;20.40;54.70;;;;;;10334139;28;1905;-70
2023/05/31 12:06:55;;;;;;;;;;;20.40;54.00;;;;;;10332623;28;944;-70
2023/05/31 12:11:50;;;;;;;;;;;20.50;54.10;;;;;;10332432;28;833;-70
2023/05/31 12:16:48;;;;;;;;;;;20.50;54.10;;;;;;10332247;28;797;-71
2023/05/31 12:21:43;;;;;;;;;;;20.50;54.10;;;;;;10331885;28;1969;-69
2023/05/31 12:26:39;;;;;;;;;;;20.50;54.00;;;;;;10332624;28;945;-70
2023/05/31 12:31:35;;;;;;;;;;;20.50;54.10;;;;;;10331676;28;879;-69
2023/05/31 12:36:30;;;;;;;;;;;20.50;54.20;;;;;;10331598;28;1357;-70
2023/05/31 12:41:25;;;;;;;;;;;20.50;54.10;;;;;;10331321;28;1918;-71
2023/05/31 12:46:21;;;;;;;;;;;20.50;54.20;;;;;;10331791;28;848;-70
2023/05/31 12:51:16;;;;;;;;;;;20.40;54.10;;;;;;10330929;28;854;-70
2023/05/31 12:56:12;;;;;;;;;;;20.40;54.20;;;;;;10331551;28;847;-70
2023/05/31 13:01:07;;;;;;;;;;;20.40;54.20;;;;;;10329163;28;1906;-71
2023/05/31 13:06:04;;;;;;;;;;;20.40;54.20;;;;;;10330131;28;853;-70
2023/05/31 13:10:59;;;;;;;;;;;20.50;54.20;;;;;;10330564;28;852;-71
2023/05/31 13:15:55;;;;;;;;;;;20.50;54.20;;;;;;10330572;28;936;-70
2023/05/31 13:20:50;;;;;;;;;;;20.50;54.20;;;;;;10329596;28;846;-70
2023/05/31 13:25:46;;;;;;;;;;;20.50;54.20;;;;;;10329326;28;1959;-71
2023/05/31 13:30:41;;;;;;;;;;;20.50;54.20;;;;;;10330096;28;880;-71
2023/05/31 13:35:37;;;;;;;;;;;20.50;54.20;;;;;;10329978;28;1137;-69
2023/05/31 13:40:33;;;;;;;;;;;20.50;54.20;;;;;;10328727;28;944;-70
2023/05/31 13:45:29;;;;;;;;;;;20.50;54.10;;;;;;10329006;28;1910;-70
2023/05/31 13:50:25;;;;;;;;;;;20.60;54.10;;;;;;10327792;28;1111;-71
2023/05/31 13:55:20;;;;;;;;;;;20.60;54.10;;;;;;10328808;28;890;-71
2023/05/31 14:00:16;;;;;;;;;;;20.60;54.10;;;;;;10328045;28;849;-69
2023/05/31 14:05:11;;;;;;;;;;;20.60;54.10;;;;;;10327485;28;1926;-69
2023/05/31 14:10:07;;;;;;;;;;;20.70;54.00;;;;;;10327849;28;871;-70
2023/05/31 14:15:02;;;;;;;;;;;20.70;53.90;;;;;;10327467;28;774;-70
2023/05/31 14:19:57;;;;;;;;;;;20.80;54.00;;;;;;10327403;28;984;-70
2023/05/31 14:24:53;;;;;;;;;;;20.80;53.90;;;;;;10327217;28;1898;-70
2023/05/31 14:29:48;;;;;;;;;;;20.90;53.90;;;;;;10327080;28;757;-69
2023/05/31 14:34:44;;;;;;;;;;;20.90;53.90;;;;;;10327238;28;1179;-69
2023/05/31 14:39:39;;;;;;;;;;;20.90;53.90;;;;;;10326744;28;809;-69
2023/05/31 14:44:35;;;;;;;;;;;20.90;53.80;;;;;;10327039;28;1913;-69
2023/05/31 14:49:31;;;;;;;;;;;20.90;53.90;;;;;;10326336;28;869;-71
2023/05/31 14:54:26;;;;;;;;;;;20.90;54.00;;;;;;10326177;28;1102;-71
2023/05/31 14:59:23;;;;;;;;;;;20.90;54.10;;;;;;10326724;28;849;-70
2023/05/31 15:04:18;;;;;;;;;;;21.00;54.00;;;;;;10317777;28;1948;-70
2023/05/31 15:09:14;;;;;;;;;;;21.00;53.90;;;;;;10325854;28;772;-70
2023/05/31 15:14:09;;;;;;;;;;;21.00;53.90;;;;;;10326292;28;837;-71
2023/05/31 15:19:05;;;;;;;;;;;21.00;53.90;;;;;;10325550;28;885;-70
2023/05/31 15:24:00;;;;;;;;;;;21.10;53.90;;;;;;10324194;28;1890;-70
2023/05/31 15:28:56;;;;;;;;;;;21.10;53.80;;;;;;10324822;28;858;-71
2023/05/31 15:33:52;;;;;;;;;;;21.20;53.80;;;;;;10324831;28;1317;-70
2023/05/31 15:38:47;;;;;;;;;;;21.20;53.70;;;;;;10325971;28;841;-70
2023/05/31 15:43:42;;;;;;;;;;;21.20;53.80;;;;;;10325116;28;1906;-71
2023/05/31 15:48:38;;;;;;;;;;;21.20;53.80;;;;;;10325142;28;859;-70
2023/05/31 15:53:33;;;;;;;;;;;21.30;53.70;;;;;;10324935;28;881;-70
2023/05/31 15:58:29;;;;;;;;;;;21.30;53.60;;;;;;10324925;28;868;-70
2023/05/31 16:03:25;;;;;;;;;;;21.30;53.60;;;;;;10324683;28;1906;-69
2023/05/31 16:08:20;;;;;;;;;;;21.30;53.50;;;;;;10324676;28;1023;-74
2023/05/31 16:13:16;;;;;;;;;;;21.40;53.40;;;;;;10324578;28;942;-70
2023/05/31 16:18:11;;;;;;;;;;;21.40;53.40;;;;;;10324684;28;877;-70
2023/05/31 16:23:07;;;;;;;;;;;21.40;53.30;;;;;;10324892;28;1899;-70
2023/05/31 16:28:02;;;;;;;;;;;21.50;53.30;;;;;;10324883;28;790;-70
2023/05/31 16:32:57;;;;;;;;;;;21.50;53.30;;;;;;10324170;28;972;-70
2023/05/31 16:37:53;;;;;;;;;;;21.50;53.30;;;;;;10329421;28;1528;-70
2023/05/31 16:42:48;;;;;;;;;;;21.50;53.30;;;;;;10331860;28;1972;-71
2023/05/31 16:47:43;;;;;;;;;;;21.50;53.20;;;;;;10331110;28;853;-70
2023/05/31 16:52:39;;;;;;;;;;;21.50;53.30;;;;;;10330931;28;896;-71
2023/05/31 16:57:34;;;;;;;;;;;21.40;53.30;;;;;;10330767;28;763;-70
2023/05/31 17:02:30;;;;;;;;;;;21.40;53.40;;;;;;10330550;28;1894;-71
2023/05/31 17:07:25;;;;;;;;;;;21.30;53.50;;;;;;10330360;28;889;-70
2023/05/31 17:12:20;;;;;;;;;;;21.30;53.50;;;;;;10330234;28;939;-70
2023/05/31 17:17:16;;;;;;;;;;;21.20;53.60;;;;;;10330158;28;865;-70
2023/05/31 17:22:11;;;;;;;;;;;21.20;53.60;;;;;;10329828;28;1965;-70
2023/05/31 17:27:07;;;;;;;;;;;21.20;53.60;;;;;;10329061;28;854;-70
2023/05/31 17:32:02;;;;;;;;;;;21.20;53.70;;;;;;10329483;28;778;-70
2023/05/31 17:36:57;;;;;;;;;;;21.20;53.70;;;;;;10329647;28;1249;-70
2023/05/31 17:41:53;;;;;;;;;;;21.20;53.70;;;;;;10329055;28;1981;-70
2023/05/31 17:46:48;;;;;;;;;;;21.20;53.70;;;;;;10328504;28;869;-70
2023/05/31 17:51:43;;;;;;;;;;;21.20;53.70;;;;;;10328908;28;875;-70
2023/05/31 17:56:39;;;;;;;;;;;21.20;53.70;;;;;;10327916;28;944;-70
2023/05/31 18:01:39;;;;;;;;;;;21.20;53.70;;;;;;10328407;28;1901;-70
2023/05/31 18:06:36;;;;;;;;;;;21.20;53.70;;;;;;10327471;28;1053;-70
2023/05/31 18:11:31;;;;;;;;;;;21.20;53.60;;;;;;10327729;28;929;-70
2023/05/31 18:16:26;;;;;;;;;;;21.30;53.60;;;;;;10328213;28;865;-71
2023/05/31 18:21:22;;;;;;;;;;;21.40;53.40;;;;;;10326787;28;1898;-70
2023/05/31 18:26:18;;;;;;;;;;;21.40;53.30;;;;;;10326710;28;952;-70
2023/05/31 18:31:14;;;;;;;;;;;21.40;53.20;;;;;;10326461;28;1217;-70
2023/05/31 18:36:09;;;;;;;;;;;21.40;53.30;;;;;;10326634;28;1189;-67
2023/05/31 18:41:05;;;;;;;;;;;21.40;53.40;;;;;;10326591;28;1972;-67
2023/05/31 18:46:00;;;;;;;;;;;21.40;53.40;;;;;;10326599;28;1023;-70
2023/05/31 18:50:56;;;;;;;;;;;21.40;53.40;;;;;;10326420;28;786;-69
2023/05/31 18:55:52;;;;;;;;;;;21.40;53.30;;;;;;10326675;28;876;-70
2023/05/31 19:00:48;;;;;;;;;;;21.40;53.30;;;;;;10325196;28;861;-70
2023/05/31 19:05:44;;;;;;;;;;;21.40;53.30;;;;;;10326480;28;2215;-70
2023/05/31 19:10:39;;;;;;;;;;;21.40;53.30;;;;;;10326002;28;944;-71
2023/05/31 19:15:35;;;;;;;;;;;21.30;53.30;;;;;;10325764;28;797;-71
2023/05/31 19:20:30;;;;;;;;;;;21.30;53.90;;;;;;10325660;28;750;-71
2023/05/31 19:25:26;;;;;;;;;;;21.30;53.40;;;;;;10325377;28;1959;-71
2023/05/31 19:30:21;;;;;;;;;;;21.30;53.50;;;;;;10325469;28;872;-71
2023/05/31 19:35:16;;;;;;;;;;;21.30;53.50;;;;;;10317877;28;1404;-71
2023/05/31 19:40:12;;;;;;;;;;;21.20;53.50;;;;;;10326496;28;783;-71
2023/05/31 19:45:07;;;;;;;;;;;21.20;53.50;;;;;;10325081;28;1975;-71
2023/05/31 19:50:03;;;;;;;;;;;21.20;53.60;;;;;;10325659;28;860;-71
2023/05/31 19:54:58;;;;;;;;;;;21.20;53.60;;;;;;10324992;28;774;-70
2023/05/31 19:59:54;;;;;;;;;;;21.20;53.60;;;;;;10326112;28;845;-71
2023/05/31 20:04:50;;;;;;;;;;;21.20;53.60;;;;;;10325810;28;2032;-71
2023/05/31 20:09:45;;;;;;;;;;;21.20;53.60;;;;;;10325965;28;849;-71
2023/05/31 20:14:41;;;;;;;;;;;21.20;53.70;;;;;;10333041;28;837;-71
2023/05/31 20:19:36;;;;;;;;;;;21.20;53.60;;;;;;10332789;28;873;-71
2023/05/31 20:24:32;;;;;;;;;;;21.20;53.70;;;;;;10331543;28;1930;-70
2023/05/31 20:29:27;;;;;;;;;;;21.10;53.60;;;;;;10332453;28;790;-71
2023/05/31 20:34:23;;;;;;;;;;;21.10;53.70;;;;;;10332499;28;1365;-71
2023/05/31 20:39:18;;;;;;;;;;;21.10;53.80;;;;;;10332226;28;864;-71
2023/05/31 20:44:13;;;;;;;;;;;21.10;53.70;;;;;;10331581;28;1914;-70
2023/05/31 20:49:09;;;;;;;;;;;21.10;53.80;;;;;;10331706;28;797;-70
2023/05/31 20:54:04;;;;;;;;;;;21.10;53.70;;;;;;10330936;28;879;-71
2023/05/31 20:59:00;;;;;;;;;;;21.10;53.70;;;;;;10330717;28;893;-70
2023/05/31 21:03:58;;;;;;;;;;;21.10;53.70;;;;;;10331131;28;1961;-71
2023/05/31 21:08:53;;;;;;;;;;;21.10;53.80;;;;;;10330949;28;837;-71
2023/05/31 21:13:48;;;;;;;;;;;21.10;53.70;;;;;;10330806;28;871;-70
2023/05/31 21:18:44;;;;;;;;;;;21.10;53.70;;;;;;10330661;28;896;-71
2023/05/31 21:23:39;;;;;;;;;;;21.10;53.70;;;;;;10328776;28;1906;-70
2023/05/31 21:28:35;;;;;;;;;;;21.10;53.70;;;;;;10330735;28;1508;-70
2023/05/31 21:33:30;;;;;;;;;;;21.10;53.70;;;;;;10329770;28;913;-70
2023/05/31 21:38:26;;;;;;;;;;;21.10;53.70;;;;;;10329300;28;1320;-70
2023/05/31 21:43:21;;;;;;;;;;;21.10;53.70;;;;;;10330053;28;1983;-70
2023/05/31 21:48:16;;;;;;;;;;;21.10;53.60;;;;;;10330142;28;919;-70
2023/05/31 21:53:12;;;;;;;;;;;21.10;53.60;;;;;;10328842;28;934;-75
2023/05/31 21:58:07;;;;;;;;;;;21.10;53.70;;;;;;10327884;28;852;-75
2023/05/31 22:03:03;;;;;;;;;;;21.10;53.50;;;;;;10328403;28;1906;-75
2023/05/31 22:07:58;;;;;;;;;;;21.20;53.50;;;;;;10328098;28;735;-74
2023/05/31 22:12:53;;;;;;;;;;;21.20;53.30;;;;;;10327266;28;920;-74
2023/05/31 22:17:49;;;;;;;;;;;21.20;53.20;;;;;;10327659;28;868;-74
2023/05/31 22:22:45;;;;;;;;;;;21.20;53.20;;;;;;10327425;28;1913;-74
2023/05/31 22:27:41;;;;;;;;;;;21.20;53.30;;;;;;10327400;28;932;-74
2023/05/31 22:32:36;;;;;;;;;;;21.20;53.20;;;;;;10326977;28;912;-74
2023/05/31 22:37:31;;;;;;;;;;;21.20;53.20;;;;;;10327916;28;1498;-74
2023/05/31 22:42:27;;;;;;;;;;;21.20;53.30;;;;;;10327118;28;1942;-75
2023/05/31 22:47:22;;;;;;;;;;;21.20;53.30;;;;;;10326556;28;916;-75
2023/05/31 22:52:19;;;;;;;;;;;21.20;53.20;;;;;;10327073;28;834;-75
2023/05/31 22:57:15;;;;;;;;;;;21.20;53.20;;;;;;10326228;28;772;-75
2023/05/31 23:02:10;;;;;;;;;;;21.20;53.20;;;;;;10326600;28;1967;-75
2023/05/31 23:07:05;;;;;;;;;;;21.20;53.20;;;;;;10325890;28;878;-75
2023/05/31 23:12:02;;;;;;;;;;;21.20;53.20;;;;;;10326489;28;951;-75
2023/05/31 23:16:58;;;;;;;;;;;21.20;53.30;;;;;;10326392;28;846;-75
2023/05/31 23:21:54;;;;;;;;;;;21.20;53.20;;;;;;10325618;28;1906;-75
2023/05/31 23:26:49;;;;;;;;;;;21.20;53.30;;;;;;10326143;28;972;-75
2023/05/31 23:31:44;;;;;;;;;;;21.20;53.20;;;;;;10325737;28;882;-75
2023/05/31 23:36:40;;;;;;;;;;;21.20;53.20;;;;;;10325541;28;1223;-75
2023/05/31 23:41:35;;;;;;;;;;;21.20;53.20;;;;;;10325166;28;1986;-75
2023/05/31 23:46:31;;;;;;;;;;;21.20;53.20;;;;;;10329489;28;885;-74
2023/05/31 23:51:26;;;;;;;;;;;21.20;53.20;;;;;;10334656;28;912;-75
2023/05/31 23:56:22;;;;;;;;;;;21.20;53.20;;;;;;10333979;28;822;-75
